Time;durP1;ratioP1;P1;durP2;ratioP2;P2;SDS_P1;SDS_P2;PMS_P1;PMS_P2;Temp;Humidity;BMP_temperature;BMP_pressure;BME280_temperature;BME280_humidity;BME280_pressure;Samples;Min_cycle;Max_cycle;Signal;HPM_P1;HPM_P2
2022/12/16 00:01:10;;;;;;;19.83;11.80;;;;;;;-4.62;60.66;99684.25;5133631;27;20062;-60
2022/12/16 00:03:39;;;;;;;22.33;12.82;;;;;;;-4.65;60.95;99681.16;5113909;27;20487;-59
2022/12/16 00:06:08;;;;;;;22.73;11.98;;;;;;;-4.63;60.63;99677.13;5128502;27;20047;-60
2022/12/16 00:08:37;;;;;;;16.52;9.55;;;;;;;-4.54;60.29;99683.88;5133325;27;20047;-60
2022/12/16 00:11:06;;;;;;;23.65;12.15;;;;;;;-4.54;59.98;99688.47;5133489;27;20055;-59
2022/12/16 00:13:36;;;;;;;21.35;12.07;;;;;;;-4.55;59.85;99690.38;5132997;28;20051;-59
2022/12/16 00:16:05;;;;;;;20.48;12.00;;;;;;;-4.56;59.27;99683.28;5133529;28;20062;-59
2022/12/16 00:18:34;;;;;;;19.77;10.85;;;;;;;-4.63;59.55;99679.03;5120768;28;20044;-59
2022/12/16 00:21:02;;;;;;;20.77;10.60;;;;;;;-4.59;59.40;99677.50;5113245;28;20056;-60
2022/12/16 00:23:29;;;;;;;21.95;11.77;;;;;;;-4.67;59.08;99677.84;5112317;28;20047;-59
2022/12/16 00:26:00;;;;;;;21.30;11.35;;;;;;;-4.76;59.87;99677.38;5112765;28;20058;-59
2022/12/16 00:28:28;;;;;;;23.15;13.38;;;;;;;-4.70;60.04;99679.16;5112427;28;20503;-60
2022/12/16 00:30:56;;;;;;;21.80;11.93;;;;;;;-4.67;60.13;99686.81;5113550;28;20051;-60
2022/12/16 00:33:27;;;;;;;22.80;10.95;;;;;;;-4.72;60.69;99678.56;5121617;27;20066;-59
2022/12/16 00:35:57;;;;;;;27.55;13.80;;;;;;;-4.70;60.86;99679.97;5136209;27;20054;-59
2022/12/16 00:38:26;;;;;;;22.05;11.90;;;;;;;-4.70;60.66;99676.44;5137241;27;20073;-60
2022/12/16 00:40:56;;;;;;;22.08;12.20;;;;;;;-4.68;60.44;99674.31;5128572;27;20059;-60
2022/12/16 00:43:24;;;;;;;24.17;12.60;;;;;;;-4.60;60.16;99687.56;5138091;27;20055;-60
2022/12/16 00:45:51;;;;;;;19.13;11.90;;;;;;;-4.74;60.33;99683.38;5137613;27;20047;-59
2022/12/16 00:48:21;;;;;;;21.80;12.93;;;;;;;-4.67;60.38;99688.72;5135210;27;20051;-60
2022/12/16 00:50:49;;;;;;;;;;;;;;;-4.78;60.74;99690.34;5118462;27;20052;-59
2022/12/16 00:53:21;;;;;;;20.38;11.75;;;;;;;-4.71;59.91;99686.44;5116996;28;19919;-59
2022/12/16 00:55:48;;;;;;;22.13;12.63;;;;;;;-4.77;59.95;99684.66;5116587;28;20055;-59
2022/12/16 00:58:15;;;;;;;24.98;12.85;;;;;;;-4.73;59.42;99671.44;5116237;28;20062;-59
2022/12/16 01:00:43;;;;;;;23.17;13.25;;;;;;;-4.97;59.66;99682.28;5115661;28;20062;-59
2022/12/16 01:03:10;;;;;;;23.80;12.60;;;;;;;-4.90;59.69;99688.41;5136294;27;20491;-59
2022/12/16 01:05:38;;;;;;;20.40;11.75;;;;;;;-4.84;59.66;99688.56;5136521;27;20054;-60
2022/12/16 01:08:06;;;;;;;20.92;12.02;;;;;;;-4.87;59.69;99684.44;5136929;27;20051;-59
2022/12/16 01:10:34;;;;;;;24.13;13.73;;;;;;;-4.91;60.20;99688.66;5136875;27;20498;-60
2022/12/16 01:13:04;;;;;;;20.60;12.35;;;;;;;-4.98;59.50;99685.22;5136602;27;20051;-60
2022/12/16 01:15:31;;;;;;;;;;;;;;;-5.02;60.69;99695.69;5132840;27;20054;-59
2022/12/16 01:17:58;;;;;;;20.23;11.70;;;;;;;-5.00;60.24;99696.28;5136710;27;19926;-59
2022/12/16 01:20:26;;;;;;;26.08;12.80;;;;;;;-4.90;60.43;99695.75;5136248;27;20051;-60
2022/12/16 01:22:53;;;;;;;27.25;14.38;;;;;;;-4.90;59.15;99704.72;5136500;27;20051;-60
2022/12/16 01:25:20;;;;;;;28.02;13.98;;;;;;;-4.88;59.24;99701.78;5136362;27;20051;-59
2022/12/16 01:27:49;;;;;;;21.13;12.23;;;;;;;-4.99;59.83;99697.97;5136533;27;20058;-59
2022/12/16 01:30:19;;;;;;;22.30;12.68;;;;;;;-4.97;59.72;99708.59;5130696;27;20071;-58
2022/12/16 01:32:46;;;;;;;25.88;13.50;;;;;;;-4.95;59.92;99704.59;5136023;27;20055;-59
2022/12/16 01:35:14;;;;;;;22.58;12.15;;;;;;;-4.94;59.59;99708.94;5136617;27;20058;-59
2022/12/16 01:37:41;;;;;;;18.02;10.23;;;;;;;-4.88;59.37;99711.81;5136054;27;20043;-60
2022/12/16 01:40:17;;;;;;;20.35;12.07;;;;;;;-5.02;59.73;99713.88;5136050;27;20058;-59
2022/12/16 01:42:44;;;;;;;24.20;11.48;;;;;;;-5.09;59.84;99713.97;5133621;27;20051;-59
2022/12/16 01:45:31;;;;;;;21.27;11.85;;;;;;;-5.07;59.62;99713.75;5135753;27;20051;-59
2022/12/16 01:48:03;;;;;;;23.20;12.30;;;;;;;-5.10;59.68;99717.78;5136086;27;20051;-59
2022/12/16 01:50:34;;;;;;;21.48;11.30;;;;;;;-5.06;59.60;99716.25;5119566;27;20062;-59
2022/12/16 01:53:05;;;;;;;21.13;11.40;;;;;;;-5.08;59.83;99718.38;5115200;28;20055;-59
2022/12/16 01:55:38;;;;;;;24.55;13.07;;;;;;;-5.17;59.85;99715.13;5115209;28;20078;-59
2022/12/16 01:58:09;;;;;;;22.20;10.98;;;;;;;-5.17;59.87;99711.59;5117835;27;20059;-59
2022/12/16 02:06:13;;;;;;;20.95;11.25;;;;;;;-5.12;59.61;99719.88;5073874;28;20060;-81
2022/12/16 02:08:40;;;;;;;24.55;12.40;;;;;;;-5.19;59.80;99719.13;5074927;28;20060;-81
2022/12/16 02:11:23;;;;;;;26.70;11.68;;;;;;;-5.19;59.84;99721.84;5073651;28;20049;-82
2022/12/16 02:14:18;;;;;;;21.45;11.93;;;;;;;-5.10;59.67;99717.78;5066596;28;20403;-81
2022/12/16 02:16:54;;;;;;;21.02;12.13;;;;;;;-5.16;59.27;99721.41;5075077;28;20057;-81
2022/12/16 02:19:55;;;;;;;23.20;12.30;;;;;;;-5.18;59.24;99718.09;5074639;28;20048;-81
2022/12/16 02:22:39;;;;;;;22.13;12.55;;;;;;;-5.16;59.29;99724.13;5074656;28;20059;-81
2022/12/16 02:25:35;;;;;;;23.42;12.63;;;;;;;-5.25;59.63;99730.91;5073547;28;20055;-81
2022/12/16 02:28:08;;;;;;;21.45;12.27;;;;;;;-5.24;59.63;99722.53;5064535;28;20057;-81
2022/12/16 02:31:07;;;;;;;23.88;11.18;;;;;;;-5.25;59.35;99720.03;5054627;28;20060;-81
2022/12/16 02:33:57;;;;;;;22.52;13.25;;;;;;;-5.37;59.13;99722.72;5054198;28;20049;-80
2022/12/16 02:36:41;;;;;;;21.73;12.80;;;;;;;-5.31;59.48;99717.19;5054421;28;20049;-81
2022/12/16 02:39:14;;;;;;;24.23;12.48;;;;;;;-5.24;60.09;99725.25;5063883;28;20071;-81
2022/12/16 02:41:47;;;;;;;24.45;13.27;;;;;;;-5.31;59.64;99725.34;5074616;28;20063;-81
2022/12/16 02:44:16;;;;;;;20.20;11.73;;;;;;;-5.26;59.75;99726.53;5073625;28;20095;-81
2022/12/16 02:46:53;;;;;;;23.92;12.48;;;;;;;-5.35;60.35;99732.28;5074108;28;20052;-81
2022/12/16 02:49:45;;;;;;;19.08;11.80;;;;;;;-5.20;59.72;99728.34;5068145;28;20412;-81
2022/12/16 02:52:14;;;;;;;23.15;12.45;;;;;;;-5.24;60.23;99727.16;5059808;28;20045;-81
2022/12/16 02:54:42;;;;;;;21.67;11.52;;;;;;;-5.25;59.88;99725.47;5074160;28;20064;-81
2022/12/16 02:57:34;;;;;;;21.65;12.05;;;;;;;-5.30;59.28;99732.41;5073690;28;20060;-81
2022/12/16 03:00:05;;;;;;;22.25;11.73;;;;;;;-5.28;59.23;99728.66;5071957;28;20056;-81
2022/12/16 03:02:40;;;;;;;19.27;10.48;;;;;;;-5.28;59.03;99731.38;5073530;28;20052;-81
2022/12/16 03:05:14;;;;;;;20.02;11.27;;;;;;;-5.32;59.04;99733.72;5073273;28;20527;-80
2022/12/16 03:07:44;;;;;;;19.45;11.43;;;;;;;-5.36;58.92;99735.22;5073322;28;20521;-81
2022/12/16 03:10:14;;;;;;;;;;;;;;;-5.46;59.49;99738.47;5074147;28;20415;-81
2022/12/16 03:12:46;;;;;;;22.67;13.30;;;;;;;-5.40;58.51;99729.41;5074179;28;19931;-81
2022/12/16 03:15:16;;;;;;;21.83;10.77;;;;;;;-5.41;59.31;99732.38;5073609;28;20052;-75
2022/12/16 03:17:48;;;;;;;19.73;11.60;;;;;;;-5.44;59.13;99730.09;5073348;28;20063;-75
2022/12/16 03:20:22;;;;;;;23.60;12.80;;;;;;;-5.37;59.47;99728.16;5073082;28;20049;-75
2022/12/16 03:22:52;;;;;;;24.85;13.23;;;;;;;-5.43;59.44;99732.59;5073489;28;20052;-75
2022/12/16 03:25:24;;;;;;;24.23;12.80;;;;;;;-5.43;59.44;99727.16;5073431;28;20060;-75
2022/12/16 03:27:59;;;;;;;26.10;12.27;;;;;;;-5.43;59.60;99729.88;5073332;28;20059;-75
2022/12/16 03:30:32;;;;;;;26.02;13.07;;;;;;;-5.46;59.25;99733.03;5073516;28;20052;-75
2022/12/16 03:33:03;;;;;;;25.77;14.38;;;;;;;-5.46;59.60;99733.03;5072699;28;20059;-75
2022/12/16 03:35:36;;;;;;;26.23;13.50;;;;;;;-5.49;59.50;99728.06;5073215;28;20054;-75
2022/12/16 03:38:10;;;;;;;22.85;12.80;;;;;;;-5.47;59.21;99731.41;5073060;28;20048;-75
2022/12/16 03:40:41;;;;;;;25.45;13.30;;;;;;;-5.49;58.76;99733.50;5073228;28;20048;-75
2022/12/16 03:43:12;;;;;;;21.02;11.55;;;;;;;-5.45;59.20;99740.13;5073053;28;20052;-75
2022/12/16 03:45:42;;;;;;;26.30;11.98;;;;;;;-5.56;59.19;99743.63;5072918;28;20060;-75
2022/12/16 03:48:13;;;;;;;26.63;12.57;;;;;;;-5.51;59.54;99747.28;5054194;28;20049;-75
2022/12/16 03:50:40;;;;;;;24.13;13.52;;;;;;;-5.61;58.89;99741.56;5070386;28;20049;-75
2022/12/16 03:53:08;;;;;;;23.30;12.10;;;;;;;-5.64;59.82;99741.22;5073049;28;20055;-75
2022/12/16 03:55:35;;;;;;;22.10;12.15;;;;;;;-5.71;58.90;99750.25;5072826;28;20059;-75
2022/12/16 03:58:02;;;;;;;20.35;11.65;;;;;;;-5.67;59.11;99749.78;5072508;28;20055;-75
2022/12/16 04:00:30;;;;;;;19.92;12.15;;;;;;;-5.60;59.09;99753.25;5072486;28;20052;-81
2022/12/16 04:02:57;;;;;;;21.48;12.55;;;;;;;-5.60;59.16;99759.50;5072557;28;20063;-81
2022/12/16 04:05:25;;;;;;;21.05;11.95;;;;;;;-5.58;59.74;99751.16;5072499;28;20433;-81
2022/12/16 04:07:53;;;;;;;22.15;11.63;;;;;;;-5.53;59.29;99748.56;5072822;28;20059;-81
2022/12/16 04:24:17;;;;;;;20.25;11.52;;;;;;;-5.50;59.69;99745.44;5072563;28;20492;-81
2022/12/16 04:24:27;;;;;;;21.42;11.38;;;;;;;-5.67;59.27;99755.19;5056768;28;20059;-81
2022/12/16 04:30:17;;;;;;;20.92;10.90;;;;;;;-5.71;58.95;99752.97;5074142;28;20067;-81
2022/12/16 04:34:24;;;;;;;20.10;11.50;;;;;;;-5.66;58.92;99765.00;5072322;28;20405;-81
